createdAt,value
2023-04-23T04:00:30.656Z,12.00
2023-04-23T04:05:30.788Z,24.00
2023-04-23T04:10:30.516Z,52.00
2023-04-23T04:15:37.501Z,96.00
2023-04-23T04:20:30.411Z,172.00
2023-04-23T04:25:30.337Z,280.00
2023-04-23T04:30:30.271Z,412.00
2023-04-23T04:35:30.246Z,604.00
2023-04-23T04:40:30.156Z,880.00
2023-04-23T04:45:30.110Z,1268.00
2023-04-23T04:50:30.067Z,1984.00
2023-04-23T04:55:30.038Z,2608.00
2023-04-23T05:00:29.983Z,2744.00
2023-04-23T05:05:29.916Z,2696.00
2023-04-23T05:10:29.874Z,2748.00
2023-04-23T05:15:29.837Z,1788.00
2023-04-23T05:20:29.753Z,1600.00
2023-04-23T05:25:29.690Z,1540.00
2023-04-23T05:30:29.642Z,1396.00
2023-04-23T05:35:29.754Z,1932.00
2023-04-23T05:40:29.551Z,2056.00
2023-04-23T05:45:29.473Z,2064.00
2023-04-23T05:50:29.417Z,2256.00
2023-04-23T05:55:29.367Z,2156.00
2023-04-23T06:00:29.393Z,3516.00
2023-04-23T06:05:29.344Z,3804.00
2023-04-23T06:10:29.192Z,3428.00
2023-04-23T06:15:29.171Z,3740.00
2023-04-23T06:20:29.089Z,4704.00
2023-04-23T06:25:29.026Z,6524.00
2023-04-23T06:30:28.961Z,7760.00
2023-04-23T06:35:28.939Z,7464.00
2023-04-23T06:40:28.878Z,8844.00
2023-04-23T06:45:28.797Z,10232.00
2023-04-23T06:50:28.753Z,6560.00
2023-04-23T06:55:28.705Z,6220.00
2023-04-23T07:00:28.642Z,6072.00
2023-04-23T07:05:28.585Z,5400.00
2023-04-23T07:10:28.549Z,6292.00
2023-04-23T07:15:28.592Z,11652.00
2023-04-23T07:20:28.453Z,17280.00
2023-04-23T07:25:28.402Z,11304.00
2023-04-23T07:30:28.347Z,9556.00
2023-04-23T07:35:28.309Z,8948.00
2023-04-23T07:40:28.222Z,8352.00
2023-04-23T07:45:28.182Z,8992.00
2023-04-23T07:50:28.124Z,8692.00
2023-04-23T07:55:28.110Z,7984.00
2023-04-23T08:00:28.017Z,8644.00
2023-04-23T08:05:28.010Z,7520.00
2023-04-23T08:10:27.917Z,9920.00
2023-04-23T08:15:27.952Z,8656.00
2023-04-23T08:20:27.797Z,7236.00
2023-04-23T08:25:27.753Z,8332.00
2023-04-23T08:30:27.690Z,12436.00
2023-04-23T08:35:27.652Z,12212.00
2023-04-23T08:40:27.579Z,10016.00
2023-04-23T08:45:27.524Z,7356.00
2023-04-23T08:50:27.476Z,6056.00
2023-04-23T08:55:27.445Z,6004.00
2023-04-23T09:00:27.368Z,6588.00
2023-04-23T09:05:27.323Z,8900.00
2023-04-23T09:10:27.260Z,7348.00
2023-04-23T09:15:27.224Z,6444.00
2023-04-23T09:20:27.162Z,6204.00
2023-04-23T09:25:27.100Z,6904.00
2023-04-23T09:30:27.044Z,5940.00
2023-04-23T09:35:27.006Z,6980.00
2023-04-23T09:40:26.941Z,9060.00
2023-04-23T09:45:26.892Z,9264.00
2023-04-23T09:50:26.834Z,10648.00
2023-04-23T09:55:26.818Z,7988.00
2023-04-23T10:00:26.718Z,7280.00
2023-04-23T10:05:31.610Z,7324.00
2023-04-23T10:10:27.902Z,9044.00
2023-04-23T10:15:26.669Z,10064.00
2023-04-23T10:20:33.546Z,10140.00
2023-04-23T10:25:26.454Z,10608.00
2023-04-23T10:30:26.431Z,11460.00
2023-04-23T10:35:26.462Z,10884.00
2023-04-23T10:40:26.326Z,9720.00
2023-04-23T10:45:26.244Z,9100.00
2023-04-23T10:50:26.488Z,7436.00
2023-04-23T10:55:26.153Z,5324.00
2023-04-23T11:00:26.070Z,6016.00
2023-04-23T11:05:26.034Z,7096.00
2023-04-23T11:10:25.999Z,7572.00
2023-04-23T11:15:25.955Z,9360.00
2023-04-23T11:20:26.063Z,7308.00
2023-04-23T11:25:25.810Z,6848.00
2023-04-23T11:30:25.728Z,7168.00
2023-04-23T11:35:25.708Z,8136.00
2023-04-23T11:40:25.690Z,7172.00
2023-04-23T11:45:25.582Z,8628.00
2023-04-23T11:50:25.551Z,10012.00
2023-04-23T11:55:25.509Z,13096.00
2023-04-23T12:00:25.437Z,12204.00
2023-04-23T12:05:25.393Z,10876.00
2023-04-23T12:10:25.327Z,8792.00
2023-04-23T12:15:25.470Z,7728.00
2023-04-23T12:20:25.227Z,9180.00
2023-04-23T12:25:25.172Z,7516.00
2023-04-23T12:30:25.090Z,8292.00
2023-04-23T12:35:25.820Z,10380.00
2023-04-23T12:40:25.007Z,8212.00
2023-04-23T12:45:24.974Z,6864.00
2023-04-23T12:50:24.916Z,7072.00
2023-04-23T12:55:24.866Z,9468.00
2023-04-23T13:00:24.826Z,8972.00
2023-04-23T13:05:24.720Z,8104.00
2023-04-23T13:10:24.693Z,7968.00
2023-04-23T13:15:26.943Z,6316.00
2023-04-23T13:20:24.597Z,7984.00
2023-04-23T13:25:24.639Z,8124.00
2023-04-23T13:30:24.462Z,8148.00
2023-04-23T13:35:24.472Z,8100.00
2023-04-23T13:40:24.395Z,8120.00
2023-04-23T13:45:24.302Z,7592.00
2023-04-23T13:50:24.343Z,7812.00
2023-04-23T13:55:24.233Z,8436.00
2023-04-23T14:00:24.141Z,7868.00
2023-04-23T14:05:24.122Z,7328.00
2023-04-23T14:10:24.081Z,7220.00
2023-04-23T14:15:24.031Z,6624.00
2023-04-23T14:20:23.916Z,6076.00
2023-04-23T14:25:23.882Z,5664.00
2023-04-23T14:30:23.819Z,4840.00
2023-04-23T14:35:35.654Z,5060.00
2023-04-23T14:40:24.716Z,5516.00
2023-04-23T14:45:23.914Z,4412.00
2023-04-23T14:50:23.599Z,3796.00
2023-04-23T14:55:23.593Z,3792.00
2023-04-23T15:00:23.476Z,3720.00
2023-04-23T15:05:23.441Z,3836.00
2023-04-23T15:10:23.523Z,2588.00
2023-04-23T15:15:30.599Z,2552.00
2023-04-23T15:20:24.287Z,3284.00
2023-04-23T15:25:23.230Z,2384.00
2023-04-23T15:30:23.692Z,1456.00
2023-04-23T15:35:23.130Z,1564.00
2023-04-23T15:40:23.072Z,1880.00
2023-04-23T15:45:23.023Z,1600.00
2023-04-23T15:50:22.983Z,1676.00
2023-04-23T15:55:22.944Z,1988.00
2023-04-23T16:00:22.853Z,1688.00
2023-04-23T16:05:22.787Z,1288.00
2023-04-23T16:10:22.767Z,988.00
2023-04-23T16:15:22.712Z,984.00
2023-04-23T16:20:29.811Z,1052.00
2023-04-23T16:25:22.579Z,724.00
2023-04-23T16:30:22.514Z,764.00
2023-04-23T16:35:22.498Z,756.00
2023-04-23T16:40:22.405Z,608.00
2023-04-23T16:45:22.361Z,528.00
2023-04-23T16:50:22.284Z,364.00
2023-04-23T16:55:22.260Z,420.00
2023-04-23T17:00:22.198Z,524.00
2023-04-23T17:05:22.126Z,436.00
2023-04-23T17:10:22.070Z,484.00
2023-04-23T17:15:22.068Z,620.00
2023-04-23T17:20:21.960Z,692.00
2023-04-23T17:25:21.908Z,584.00
2023-04-23T17:30:21.841Z,516.00
2023-04-23T17:35:21.821Z,468.00
2023-04-23T17:40:21.941Z,352.00
2023-04-23T17:45:21.689Z,212.00
2023-04-23T17:50:21.638Z,196.00
2023-04-23T17:55:21.613Z,224.00
2023-04-23T18:00:21.588Z,252.00
2023-04-23T18:05:21.474Z,248.00
2023-04-23T18:10:21.422Z,212.00
2023-04-23T18:15:21.390Z,176.00
2023-04-23T18:20:22.836Z,160.00
2023-04-23T18:25:21.256Z,124.00
2023-04-23T18:30:21.213Z,96.00
2023-04-23T18:35:21.170Z,60.00
2023-04-23T18:40:21.112Z,24.00
2023-04-23T18:45:21.030Z,12.00
2023-04-23T18:50:20.984Z,8.00
2023-04-23T18:55:20.967Z,4.00
2023-04-23T19:00:20.874Z,8.00
2023-04-23T19:05:20.850Z,0.00
2023-04-23T19:10:20.773Z,0.00
2023-04-23T19:15:20.730Z,0.00
2023-04-23T19:20:20.659Z,0.00
2023-04-23T19:25:20.608Z,0.00
2023-04-23T19:30:20.562Z,0.00
2023-04-23T19:35:20.518Z,0.00
2023-04-23T19:40:20.444Z,0.00
2023-04-23T19:45:20.392Z,0.00
2023-04-23T19:50:20.333Z,0.00
2023-04-23T19:55:20.298Z,0.00
2023-04-23T20:00:20.236Z,0.00
2023-04-23T20:05:20.190Z,0.00
2023-04-23T20:10:20.122Z,0.00
2023-04-23T20:15:20.088Z,0.00
2023-04-23T20:20:20.008Z,0.00
2023-04-23T20:25:20.841Z,0.00
2023-04-23T20:30:19.916Z,0.00
2023-04-23T20:35:19.903Z,0.00
2023-04-23T20:40:19.801Z,0.00
2023-04-23T20:45:19.741Z,0.00
2023-04-23T20:50:19.690Z,0.00
2023-04-23T20:55:19.663Z,0.00
2023-04-23T21:00:19.582Z,0.00
2023-04-23T21:05:19.518Z,0.00
2023-04-23T21:10:19.487Z,0.00
2023-04-23T21:15:19.442Z,0.00
2023-04-23T21:20:19.368Z,0.00
2023-04-23T21:25:19.309Z,0.00
2023-04-23T21:30:19.253Z,0.00
2023-04-23T21:35:19.389Z,0.00
2023-04-23T21:40:19.138Z,0.00
2023-04-23T21:45:19.094Z,0.00
2023-04-23T21:50:19.039Z,0.00
2023-04-23T21:55:19.029Z,0.00
2023-04-23T22:00:18.946Z,0.00
2023-04-23T22:05:18.882Z,0.00
2023-04-23T22:10:18.832Z,0.00
2023-04-23T22:15:18.798Z,0.00
2023-04-23T22:20:18.718Z,0.00
2023-04-23T22:25:18.675Z,0.00
2023-04-23T22:30:18.604Z,0.00
2023-04-23T22:35:18.703Z,0.00
2023-04-23T22:40:18.512Z,0.00
2023-04-23T22:45:18.455Z,0.00
2023-04-23T22:50:18.395Z,0.00
2023-04-23T22:55:18.373Z,0.00
2023-04-23T23:00:18.332Z,0.00
2023-04-23T23:05:18.240Z,0.00
2023-04-23T23:10:18.177Z,0.00
2023-04-23T23:15:18.148Z,0.00
2023-04-23T23:20:18.076Z,0.00
2023-04-23T23:25:18.020Z,0.00
